Charter Quote
Worldwide +44-20-3874-8091 Call
Select Language Lang
SAFETY RELIABILITY EXPERIENCE

Shimofusa Airport (RJTL) - Jet Charter Services

AIRPORT INFORMATION
ICAORJTL
LOCATIONShimofusa, Japan
FACILITY TYPEAIRPORT
Runway Length (ft) Width (ft) Surface Type Elevation (ft)
19/01 7380 150 CON 97.93443

At Paramount Business Jets you can hire chartered private jets to and from Shimofusa Airport with as little as 4 hours of notice. All flights booked via Paramount Business Jets are operated by certified direct air carriers that meet and exceed the FAA part 135 and 121 protocol or a foreign equivalent safety authority. Furthermore, Paramount Business Jets subscribes to ARGUS for their third party safety checks of operators, aircraft, and crews prior each and every flight to and from Shimofusa Airport and worldwide.

  • Quote a trip using Shimofusa Airport or call us 24/7 - 365 days a year at +44-20-3874-8091.
Questions? Call +44-20-3874-8091

FBOs at Shimofusa Airport, RJTL

NAME ADDRESS PHONE WEBSITE
Commander Air Training Group    (814) 719-2321   

METAR Weather Data at Shimofusa Airport, RJTL

STATIONRJTL
OBSERVEDThu Jun 20, 22:38 UTC
NOWFri Jun 21, 00:03 UTC
AGE85 min ago
WINDSE at 8 mph
VISIBILITY13 miles
CLOUDSscattered clouds
METARRJTL 202238Z 14007KT 8000 SCT012 SCT040 BKN/// 23/21 Q1009 RMK 4CU012 3SC040 A2982

Call us on +44-20-3874-8091 (24 Hours) to Hire a Private Jet or Get a Quick Quote.

Find Airports Near any Location

Processing
...